Time;durP1;ratioP1;P1;durP2;ratioP2;P2;SDS_P1;SDS_P2;PMS_P1;PMS_P2;Temp;Humidity;BMP_temperature;BMP_pressure;BME280_temperature;BME280_humidity;BME280_pressure;Samples;Min_cycle;Max_cycle;Signal;HPM_P1;HPM_P2
2023/08/14 00:01:04;;;;;;;8.30;4.00;;;;;;;17.05;100.00;101470.88;4986586;28;20041;-83
2023/08/14 00:03:31;;;;;;;7.25;3.63;;;;;;;17.05;100.00;101482.19;4988002;28;20038;-83
2023/08/14 00:05:56;;;;;;;6.35;4.47;;;;;;;17.06;100.00;101472.50;5000989;28;20030;-83
2023/08/14 00:08:22;;;;;;;6.75;3.80;;;;;;;16.96;100.00;101469.69;4988382;28;20678;-83
2023/08/14 00:10:47;;;;;;;8.90;3.63;;;;;;;17.09;100.00;101482.19;4987581;28;20460;-82
2023/08/14 00:13:13;;;;;;;5.35;3.55;;;;;;;17.05;100.00;101484.19;4983006;28;20049;-83
2023/08/14 00:15:38;;;;;;;8.27;4.60;;;;;;;16.90;100.00;101472.13;4981932;28;20623;-83
2023/08/14 00:18:04;;;;;;;6.40;3.88;;;;;;;16.92;100.00;101477.38;4994907;28;20034;-83
2023/08/14 00:20:30;;;;;;;8.05;4.32;;;;;;;16.81;100.00;101466.88;4985355;28;20053;-86
2023/08/14 00:22:55;;;;;;;7.00;4.70;;;;;;;16.85;100.00;101473.34;4995778;28;20030;-83
2023/08/14 00:25:22;;;;;;;5.07;3.85;;;;;;;16.92;100.00;101483.03;4986154;28;20486;-83
2023/08/14 00:27:48;;;;;;;7.00;3.70;;;;;;;16.83;100.00;101463.66;4987560;28;20101;-83
2023/08/14 00:30:14;;;;;;;4.32;3.88;;;;;;;16.79;100.00;101445.88;4979152;28;20034;-83
2023/08/14 00:32:39;;;;;;;6.95;4.70;;;;;;;16.94;100.00;101474.94;4968966;28;20037;-83
2023/08/14 00:35:05;;;;;;;6.50;3.80;;;;;;;17.02;100.00;101476.53;4978288;28;20170;-83
2023/08/14 00:37:45;;;;;;;8.82;4.57;;;;;;;17.00;100.00;101473.31;4973774;28;20077;-83
2023/08/14 00:40:11;;;;;;;6.50;4.85;;;;;;;16.97;100.00;101474.94;4969110;28;20042;-83
2023/08/14 00:42:38;;;;;;;8.38;4.60;;;;;;;16.90;100.00;101451.53;4976804;28;20038;-83
2023/08/14 00:45:05;;;;;;;8.52;5.22;;;;;;;16.82;100.00;101460.03;4990259;28;20486;-83
2023/08/14 00:47:33;;;;;;;5.78;4.13;;;;;;;16.79;100.00;101452.31;4984957;28;20037;-83
2023/08/14 00:49:58;;;;;;;6.72;5.07;;;;;;;16.72;100.00;101446.69;4985043;28;20412;-83
2023/08/14 00:52:26;;;;;;;5.55;4.28;;;;;;;16.90;100.00;101457.19;4983273;28;20044;-83
2023/08/14 00:54:52;;;;;;;9.90;6.32;;;;;;;16.88;100.00;101451.94;4982610;28;20031;-83
2023/08/14 00:57:17;;;;;;;5.45;4.28;;;;;;;16.86;100.00;101451.53;4978915;28;20379;-83
2023/08/14 00:59:43;;;;;;;7.65;4.70;;;;;;;16.93;100.00;101450.69;4973986;28;20019;-83
2023/08/14 01:02:08;;;;;;;10.40;4.53;;;;;;;16.88;100.00;101442.66;4991298;28;20026;-83
2023/08/14 01:04:34;;;;;;;9.90;4.82;;;;;;;16.90;100.00;101454.34;4976461;28;20142;-83
2023/08/14 01:06:59;;;;;;;8.18;6.00;;;;;;;16.75;100.00;101430.94;4981670;28;20026;-83
2023/08/14 01:09:24;;;;;;;5.70;4.85;;;;;;;16.79;100.00;101441.00;4982018;28;20498;-83
2023/08/14 01:12:22;;;;;;;7.35;5.07;;;;;;;16.85;100.00;101449.94;4983416;28;20197;-82
2023/08/14 01:14:55;;;;;;;5.90;4.45;;;;;;;16.86;100.00;101449.53;4979251;28;20030;-82
2023/08/14 01:17:24;;;;;;;6.35;4.35;;;;;;;16.80;100.00;101451.16;4974589;28;20426;-83
2023/08/14 01:19:51;;;;;;;9.95;5.35;;;;;;;16.57;100.00;101439.44;4980629;28;20057;-83
2023/08/14 01:22:29;;;;;;;9.30;5.30;;;;;;;16.65;100.00;101441.03;4972106;28;20027;-83
2023/08/14 01:25:18;;;;;;;7.03;4.88;;;;;;;16.76;100.00;101449.50;4980941;28;20387;-82
2023/08/14 01:27:44;;;;;;;7.68;4.80;;;;;;;16.75;100.00;101439.41;4979485;28;20038;-82
2023/08/14 01:30:11;;;;;;;9.73;5.40;;;;;;;16.69;100.00;101433.38;4974811;28;20031;-83
2023/08/14 01:32:36;;;;;;;8.88;4.22;;;;;;;16.70;100.00;101437.81;4983512;28;20150;-84
2023/08/14 01:35:02;;;;;;;8.32;4.68;;;;;;;16.72;100.00;101452.34;4981394;28;20121;-83
2023/08/14 01:37:40;;;;;;;5.68;4.30;;;;;;;16.77;100.00;101448.28;4995418;28;20026;-84
2023/08/14 01:40:44;;;;;;;7.57;4.50;;;;;;;16.74;100.00;101454.75;4974433;28;20026;-84
2023/08/14 01:43:20;;;;;;;8.65;5.18;;;;;;;16.75;100.00;101448.69;4961367;28;20033;-84
2023/08/14 01:45:46;;;;;;;7.88;4.82;;;;;;;16.68;100.00;101451.56;4986988;28;20221;-84
2023/08/14 01:48:14;;;;;;;8.30;4.43;;;;;;;16.65;100.00;101449.53;4977953;28;20034;-84
2023/08/14 01:50:41;;;;;;;7.93;4.43;;;;;;;16.71;100.00;101450.72;4972753;28;20464;-84
2023/08/14 01:53:07;;;;;;;6.93;4.25;;;;;;;16.72;100.00;101445.88;4981709;28;20034;-84
2023/08/14 01:55:32;;;;;;;5.00;3.80;;;;;;;16.70;100.00;101437.81;4974754;28;20534;-84
2023/08/14 01:57:58;;;;;;;9.55;4.57;;;;;;;16.66;100.00;101439.84;4982188;28;20030;-84
2023/08/14 02:00:23;;;;;;;7.70;4.15;;;;;;;16.63;100.00;101418.84;4970099;28;20398;-84
2023/08/14 02:02:49;;;;;;;6.00;4.38;;;;;;;16.72;100.00;101429.75;4998278;28;20030;-83
2023/08/14 02:05:15;;;;;;;6.38;4.97;;;;;;;16.63;100.00;101426.50;4984290;28;20173;-83
2023/08/14 02:07:41;;;;;;;6.85;5.15;;;;;;;16.63;100.00;101429.34;4984391;28;20033;-83
2023/08/14 02:10:08;;;;;;;11.65;4.93;;;;;;;16.56;100.00;101401.91;4974705;28;20034;-83
2023/08/14 02:12:34;;;;;;;8.70;4.90;;;;;;;16.62;100.00;101424.91;4981954;28;20368;-83
2023/08/14 02:14:59;;;;;;;4.65;3.83;;;;;;;16.51;100.00;101405.16;4975838;28;20041;-84
2023/08/14 02:17:27;;;;;;;7.95;4.90;;;;;;;16.55;100.00;101419.25;4975004;28;20117;-84
2023/08/14 02:19:53;;;;;;;5.65;3.97;;;;;;;16.51;100.00;101418.44;4973111;28;20401;-84
2023/08/14 02:22:18;;;;;;;7.45;4.75;;;;;;;16.48;100.00;101419.28;4974777;28;20019;-83
2023/08/14 02:24:43;;;;;;;8.10;5.82;;;;;;;16.54;100.00;101417.66;4974983;28;20037;-83
2023/08/14 02:27:09;;;;;;;10.98;4.55;;;;;;;16.59;100.00;101414.41;4989227;28;20031;-83
2023/08/14 02:29:34;;;;;;;8.48;4.45;;;;;;;16.55;100.00;101416.44;4980986;28;20064;-83
2023/08/14 02:32:01;;;;;;;11.25;5.00;;;;;;;16.42;100.00;101399.91;4993554;28;20067;-83
2023/08/14 02:34:43;;;;;;;9.75;5.03;;;;;;;16.59;100.00;101406.75;4981110;28;20392;-83
2023/08/14 02:37:08;;;;;;;9.70;4.55;;;;;;;16.50;100.00;101402.72;4982009;28;20502;-83
2023/08/14 02:39:34;;;;;;;6.47;4.75;;;;;;;16.54;100.00;101400.69;4981036;28;20106;-83
2023/08/14 02:41:59;;;;;;;7.13;5.07;;;;;;;16.43;100.00;101389.41;4981959;28;20031;-82
2023/08/14 02:44:25;;;;;;;10.60;5.68;;;;;;;16.47;100.00;101393.03;4973894;28;20051;-83
2023/08/14 02:46:50;;;;;;;6.05;4.55;;;;;;;16.46;100.00;101395.06;4982297;28;20039;-82
2023/08/14 02:49:16;;;;;;;8.73;4.45;;;;;;;16.36;100.00;101384.59;4964053;28;20023;-82
2023/08/14 02:51:41;;;;;;;6.03;4.97;;;;;;;16.38;100.00;101392.63;4986785;28;20026;-83
2023/08/14 02:54:06;;;;;;;7.15;5.07;;;;;;;16.31;100.00;101384.19;4987988;28;20030;-83
2023/08/14 02:56:32;;;;;;;7.40;4.28;;;;;;;16.34;100.00;101395.47;4991251;28;20475;-83
2023/08/14 02:58:57;;;;;;;5.88;4.50;;;;;;;16.25;100.00;101378.13;4985351;28;20061;-83
2023/08/14 03:01:22;;;;;;;6.10;4.53;;;;;;;16.31;100.00;101387.81;4986312;28;20056;-83
2023/08/14 03:03:48;;;;;;;6.07;4.47;;;;;;;16.35;100.00;101388.59;4989558;28;20057;-83
2023/08/14 03:06:13;;;;;;;4.80;4.05;;;;;;;16.16;100.00;101366.44;4979084;28;20413;-82
2023/08/14 03:08:39;;;;;;;6.55;4.75;;;;;;;16.36;100.00;101393.06;4977653;28;20369;-83
2023/08/14 03:11:04;;;;;;;4.95;4.13;;;;;;;16.22;100.00;101376.13;4973697;28;20031;-82
2023/08/14 03:13:30;;;;;;;6.38;3.88;;;;;;;16.26;100.00;101393.88;4986980;28;20447;-82
2023/08/14 03:15:55;;;;;;;4.68;3.88;;;;;;;16.31;100.00;101392.66;4977702;28;20077;-82
2023/08/14 03:18:21;;;;;;;7.38;4.55;;;;;;;16.24;100.00;101387.81;4998862;28;20272;-82
2023/08/14 03:20:47;;;;;;;5.82;3.80;;;;;;;16.10;100.00;101373.72;4983597;28;20023;-82
2023/08/14 03:23:13;;;;;;;6.60;5.10;;;;;;;16.10;100.00;101370.88;4986461;28;20034;-82
2023/08/14 03:25:38;;;;;;;8.70;5.30;;;;;;;16.18;100.00;101395.09;4981988;28;20077;-82
2023/08/14 03:28:04;;;;;;;5.25;3.85;;;;;;;16.24;100.00;101396.28;4986887;28;20028;-82
2023/08/14 03:30:30;;;;;;;10.82;4.40;;;;;;;16.04;100.00;101382.59;4987606;28;20038;-82
2023/08/14 03:32:55;;;;;;;8.52;4.78;;;;;;;16.19;100.00;101396.69;4988055;28;20022;-83
2023/08/14 03:35:22;;;;;;;7.60;5.18;;;;;;;16.12;100.00;101396.69;4982184;28;20036;-82
2023/08/14 03:37:47;;;;;;;6.40;4.72;;;;;;;16.13;100.00;101392.66;4985150;28;20455;-82
2023/08/14 03:40:13;;;;;;;6.32;5.10;;;;;;;16.13;100.00;101399.13;4985217;28;20029;-82
2023/08/14 03:42:38;;;;;;;8.70;4.85;;;;;;;16.05;100.00;101398.31;4990221;28;20014;-82
2023/08/14 03:45:04;;;;;;;6.28;5.22;;;;;;;16.08;100.00;101395.91;4988376;28;20352;-82
2023/08/14 03:47:29;;;;;;;8.27;4.82;;;;;;;16.08;100.00;101396.69;4981964;28;20026;-82
2023/08/14 03:49:55;;;;;;;7.53;5.03;;;;;;;16.09;100.00;101408.81;4980044;28;20034;-82
2023/08/14 03:52:20;;;;;;;9.57;5.10;;;;;;;15.94;100.00;101385.38;4983513;28;20042;-83
2023/08/14 03:54:46;;;;;;;7.72;5.25;;;;;;;15.91;100.00;101392.66;4980469;28;20093;-82
2023/08/14 03:57:11;;;;;;;12.07;5.43;;;;;;;15.97;100.00;101396.69;4986090;28;20062;-82
2023/08/14 03:59:36;;;;;;;6.70;4.88;;;;;;;16.14;100.00;101405.56;4980671;28;20077;-82
2023/08/14 04:02:02;;;;;;;13.57;6.18;;;;;;;16.07;100.00;101392.28;4986432;28;20034;-82
2023/08/14 04:04:27;;;;;;;8.32;5.60;;;;;;;15.99;100.00;101391.44;4982071;28;20015;-82
2023/08/14 04:06:53;;;;;;;7.15;5.47;;;;;;;16.00;100.00;101389.44;4983804;28;20030;-82
2023/08/14 04:09:18;;;;;;;8.15;5.05;;;;;;;16.04;100.00;101402.38;4977952;28;20600;-82
2023/08/14 04:11:43;;;;;;;9.57;5.38;;;;;;;15.92;100.00;101382.19;5001144;28;20080;-82
2023/08/14 04:14:10;;;;;;;8.05;5.95;;;;;;;15.94;100.00;101385.38;4973401;28;20042;-82
2023/08/14 04:16:42;;;;;;;7.70;5.97;;;;;;;16.03;100.00;101400.72;4975557;28;20054;-82
2023/08/14 04:19:15;;;;;;;11.82;7.10;;;;;;;15.93;100.00;101401.53;4988563;28;20038;-82
2023/08/14 04:21:43;;;;;;;10.93;6.70;;;;;;;15.97;100.00;101402.34;4980839;28;20113;-82
2023/08/14 04:24:09;;;;;;;8.30;5.97;;;;;;;15.95;100.00;101389.84;4987637;28;20435;-82
2023/08/14 04:26:36;;;;;;;9.75;6.18;;;;;;;15.88;100.00;101387.81;4987311;28;20022;-82
2023/08/14 04:29:11;;;;;;;9.70;6.50;;;;;;;15.77;100.00;101375.69;4985361;28;20031;-82
2023/08/14 04:31:38;;;;;;;10.50;6.30;;;;;;;15.76;100.00;101374.91;4985760;28;20498;-82
2023/08/14 04:34:04;;;;;;;13.95;6.72;;;;;;;15.80;100.00;101383.38;4983670;28;20053;-82
2023/08/14 04:36:31;;;;;;;11.20;7.30;;;;;;;15.86;100.00;101384.59;4983431;28;20045;-82
2023/08/14 04:38:57;;;;;;;10.93;7.07;;;;;;;15.94;100.00;101388.22;4980461;28;20054;-82
2023/08/14 04:41:23;;;;;;;8.60;5.85;;;;;;;15.90;100.00;101379.75;4983947;28;20117;-82
2023/08/14 04:43:49;;;;;;;10.80;6.57;;;;;;;15.97;100.00;101387.41;4978669;28;20077;-82
2023/08/14 04:46:31;;;;;;;8.18;6.45;;;;;;;16.10;100.00;101388.63;4986954;28;20093;-82
2023/08/14 04:48:58;;;;;;;12.70;6.68;;;;;;;16.08;100.00;101373.31;4987821;28;20037;-82
2023/08/14 04:51:24;;;;;;;13.95;6.82;;;;;;;16.08;100.00;101376.94;4991759;28;20030;-81
2023/08/14 04:53:49;;;;;;;8.13;6.20;;;;;;;16.05;100.00;101375.72;4989401;28;20435;-82
2023/08/14 04:56:14;;;;;;;9.40;6.38;;;;;;;16.03;100.00;101380.97;4989599;28;20438;-82
2023/08/14 04:58:41;;;;;;;12.45;7.25;;;;;;;15.99;100.00;101377.34;4984515;28;20226;-82
2023/08/14 05:01:06;;;;;;;16.60;8.20;;;;;;;15.84;100.00;101370.06;4984899;28;20034;-82
2023/08/14 05:03:32;;;;;;;13.00;8.70;;;;;;;15.84;100.00;101361.63;4998410;28;20389;-82
2023/08/14 05:05:57;;;;;;;9.80;6.45;;;;;;;16.01;100.00;101380.56;4987203;28;20406;-82
2023/08/14 05:08:22;;;;;;;13.20;6.45;;;;;;;16.12;100.00;101377.72;4980252;28;20030;-82
2023/08/14 05:10:52;;;;;;;10.43;6.82;;;;;;;16.07;100.00;101363.22;4983516;28;20113;-82
2023/08/14 05:13:18;;;;;;;13.88;7.90;;;;;;;16.18;100.00;101364.03;4979794;28;20513;-82
2023/08/14 05:15:46;;;;;;;15.60;8.18;;;;;;;16.14;100.00;101363.22;4978703;28;20061;-82
2023/08/14 05:18:11;;;;;;;12.93;8.82;;;;;;;16.02;100.00;101370.91;4974931;28;20057;-82
2023/08/14 05:20:37;;;;;;;13.57;7.43;;;;;;;15.93;100.00;101362.00;4986255;28;20026;-82
2023/08/14 05:23:02;;;;;;;11.95;6.93;;;;;;;15.99;100.00;101362.41;4977679;28;20042;-82
2023/08/14 05:25:27;;;;;;;13.55;7.85;;;;;;;16.02;100.00;101367.25;4985689;28;20364;-82
2023/08/14 05:27:54;;;;;;;11.07;6.90;;;;;;;16.04;100.00;101374.13;4981055;28;20027;-81
2023/08/14 05:30:20;;;;;;;16.90;9.52;;;;;;;16.02;100.00;101373.72;4978788;28;20038;-82
2023/08/14 05:32:47;;;;;;;12.75;7.13;;;;;;;16.11;100.00;101389.44;4987521;28;20081;-82
2023/08/14 05:35:16;;;;;;;11.73;7.85;;;;;;;16.10;100.00;101382.97;4987489;28;20034;-81
2023/08/14 05:37:42;;;;;;;15.20;8.68;;;;;;;16.11;100.00;101386.63;4979717;28;20454;-82
2023/08/14 05:40:10;;;;;;;10.43;6.97;;;;;;;16.19;100.00;101386.22;4977947;28;20408;-81
2023/08/14 05:42:36;;;;;;;11.27;6.93;;;;;;;16.17;100.00;101377.34;4985931;28;20133;-82
2023/08/14 05:45:02;;;;;;;16.00;9.15;;;;;;;16.30;100.00;101380.56;4989769;28;20038;-95
2023/08/14 05:47:27;;;;;;;12.45;7.70;;;;;;;16.33;100.00;101374.09;4996659;28;20403;-95
2023/08/14 05:49:53;;;;;;;15.35;9.23;;;;;;;16.38;100.00;101381.34;4990586;28;20027;-94
2023/08/14 05:52:18;;;;;;;14.05;7.70;;;;;;;16.24;100.00;101373.69;4986997;28;20027;-94
2023/08/14 05:54:44;;;;;;;16.48;8.90;;;;;;;16.37;100.00;101377.72;4994590;28;20021;-95
2023/08/14 05:57:09;;;;;;;12.38;7.00;;;;;;;16.37;100.00;101385.38;4989029;28;20054;-95
2023/08/14 05:59:34;;;;;;;17.27;9.73;;;;;;;16.26;100.00;101357.97;4988856;28;20384;-95
2023/08/14 06:02:00;;;;;;;14.77;8.90;;;;;;;16.26;100.00;101368.44;4991741;28;20033;-95
2023/08/14 06:04:26;;;;;;;15.63;9.60;;;;;;;16.22;100.00;101362.81;4996790;28;20014;-94
2023/08/14 06:06:51;;;;;;;13.45;8.80;;;;;;;16.16;100.00;101355.16;4994255;28;20034;-95
2023/08/14 06:09:17;;;;;;;12.20;7.50;;;;;;;16.16;100.00;101350.28;5006008;28;20038;-94
2023/08/14 06:11:43;;;;;;;16.77;9.98;;;;;;;16.41;100.00;101384.16;5000890;28;20080;-94
2023/08/14 06:14:08;;;;;;;20.05;10.07;;;;;;;16.25;100.00;101356.34;4999881;28;20038;-94
2023/08/14 06:16:34;;;;;;;15.32;9.00;;;;;;;16.34;100.00;101378.53;4992791;28;20038;-95
2023/08/14 06:19:02;;;;;;;11.45;7.97;;;;;;;16.33;100.00;101374.09;4992860;28;20026;-94
2023/08/14 06:21:28;;;;;;;12.60;7.65;;;;;;;16.39;100.00;101389.41;4990064;28;20396;-94
2023/08/14 06:23:53;;;;;;;21.85;8.35;;;;;;;16.31;100.00;101370.84;4997340;28;20022;-95
2023/08/14 06:26:18;;;;;;;15.85;7.72;;;;;;;16.49;100.00;101390.63;4993052;28;20030;-93
2023/08/14 06:28:44;;;;;;;11.70;7.55;;;;;;;16.40;100.00;101378.91;4992186;28;20083;-94
2023/08/14 06:31:09;;;;;;;14.27;7.53;;;;;;;16.54;100.00;101383.75;4991749;28;20554;-94
2023/08/14 06:33:35;;;;;;;18.85;9.40;;;;;;;16.58;100.00;101390.19;4990531;28;20023;-95
2023/08/14 06:36:00;;;;;;;15.85;8.27;;;;;;;16.65;100.00;101390.16;4992831;28;20026;-94
2023/08/14 06:38:27;;;;;;;12.40;7.97;;;;;;;16.65;100.00;101391.00;4996034;28;20022;-95
2023/08/14 06:40:52;;;;;;;13.88;8.02;;;;;;;16.72;100.00;101395.00;4992424;28;20030;-94
2023/08/14 06:43:19;;;;;;;13.00;7.63;;;;;;;16.75;100.00;101406.28;4991697;28;20037;-95
2023/08/14 06:45:46;;;;;;;15.52;8.00;;;;;;;16.81;100.00;101387.72;5001086;28;20032;-94
2023/08/14 06:48:12;;;;;;;10.65;6.85;;;;;;;16.75;100.00;101378.03;4997560;28;20506;-94
2023/08/14 06:50:38;;;;;;;12.48;7.35;;;;;;;16.84;100.00;101386.94;4995818;28;20022;-95
2023/08/14 06:53:03;;;;;;;13.70;8.60;;;;;;;16.91;100.00;101386.09;4992825;28;20025;-95
2023/08/14 06:55:29;;;;;;;14.13;8.25;;;;;;;16.91;100.00;101385.25;4994835;28;20026;-95
2023/08/14 06:57:54;;;;;;;12.13;7.00;;;;;;;17.01;100.00;101407.03;4991538;28;20036;-94
2023/08/14 07:00:19;;;;;;;13.35;7.70;;;;;;;17.07;100.00;101396.94;4980067;28;20038;-94
2023/08/14 07:02:47;;;;;;;12.00;7.63;;;;;;;17.28;100.00;101421.47;4990340;28;20022;-95
2023/08/14 07:05:12;;;;;;;11.35;7.63;;;;;;;17.27;100.00;101420.69;4984513;28;20041;-94
2023/08/14 07:07:38;;;;;;;11.88;7.85;;;;;;;17.35;100.00;101415.81;4993210;28;20455;-94
2023/08/14 07:10:04;;;;;;;14.20;8.35;;;;;;;17.34;100.00;101402.06;4985744;28;20058;-94
2023/08/14 07:12:29;;;;;;;16.05;7.45;;;;;;;17.40;100.00;101408.91;5000649;28;20394;-94
2023/08/14 07:14:55;;;;;;;11.57;5.40;;;;;;;17.40;100.00;101406.09;4986677;28;20033;-93
2023/08/14 07:17:20;;;;;;;22.08;7.93;;;;;;;17.46;100.00;101410.09;5005400;28;20048;-95
2023/08/14 07:19:46;;;;;;;10.70;6.70;;;;;;;17.62;100.00;101409.56;4997691;28;20093;-95
2023/08/14 07:22:11;;;;;;;12.32;7.80;;;;;;;17.39;100.00;101378.97;4990732;28;20023;-95
2023/08/14 07:24:36;;;;;;;12.70;7.40;;;;;;;17.54;100.00;101406.00;4992060;28;20201;-94
2023/08/14 07:27:02;;;;;;;13.77;7.60;;;;;;;17.63;100.00;101403.50;4990233;28;20026;-95
2023/08/14 07:29:27;;;;;;;18.90;7.18;;;;;;;17.74;100.00;101402.63;4989161;28;20047;-95
2023/08/14 07:31:53;;;;;;;14.55;8.00;;;;;;;17.80;100.00;101406.66;4994628;28;20018;-95
2023/08/14 07:34:18;;;;;;;9.60;6.72;;;;;;;17.84;100.00;101384.81;4997229;28;20398;-96
2023/08/14 07:36:43;;;;;;;12.63;6.80;;;;;;;18.15;100.00;101387.78;5002770;28;20049;-95
2023/08/14 07:39:09;;;;;;;13.63;8.00;;;;;;;18.30;100.00;101403.44;4992727;28;20026;-95
2023/08/14 07:41:34;;;;;;;10.60;6.70;;;;;;;18.35;100.00;101411.47;4991782;28;20041;-95
2023/08/14 07:44:03;;;;;;;12.38;6.93;;;;;;;18.24;100.00;101400.25;4992996;28;20033;-96
2023/08/14 07:46:28;;;;;;;8.75;5.72;;;;;;;18.15;100.00;101376.44;4991786;28;20378;-96
2023/08/14 07:48:54;;;;;;;9.50;4.45;;;;;;;18.26;100.00;101399.84;5004379;28;20025;-95
2023/08/14 07:51:19;;;;;;;12.82;6.15;;;;;;;18.53;100.00;101387.81;5007481;28;20159;-96
2023/08/14 07:53:45;;;;;;;9.60;5.03;;;;;;;18.73;100.00;101383.16;4999737;28;20027;-96
2023/08/14 07:56:10;;;;;;;9.43;5.40;;;;;;;18.89;100.00;101406.09;4984873;28;20487;-95
2023/08/14 07:58:36;;;;;;;10.40;6.20;;;;;;;18.99;100.00;101395.03;5015009;28;20144;-95
2023/08/14 08:01:02;;;;;;;11.35;6.43;;;;;;;18.97;100.00;101383.31;5013040;28;20035;-95
2023/08/14 08:03:27;;;;;;;9.32;5.88;;;;;;;19.26;100.00;101412.13;4999818;28;20100;-95
2023/08/14 08:05:53;;;;;;;7.47;4.88;;;;;;;19.42;100.00;101417.19;5005906;28;20030;-96
2023/08/14 08:08:18;;;;;;;16.10;5.88;;;;;;;19.26;100.00;101393.06;5001860;28;20027;-96
2023/08/14 08:10:44;;;;;;;10.52;5.03;;;;;;;19.82;100.00;101409.75;5004199;28;20150;-96
2023/08/14 08:13:09;;;;;;;12.80;5.70;;;;;;;19.85;100.00;101402.38;5016052;28;20033;-96
2023/08/14 08:15:35;;;;;;;12.07;5.15;;;;;;;19.84;100.00;101410.13;5010457;28;20090;-95
2023/08/14 08:18:03;;;;;;;8.45;4.68;;;;;;;19.72;100.00;101416.38;4999127;28;20530;-96
2023/08/14 08:20:30;;;;;;;6.43;4.93;;;;;;;19.64;100.00;101395.75;5010311;28;20037;-96
2023/08/14 08:22:55;;;;;;;9.52;5.28;;;;;;;;;;5029675;28;20042;-96
2023/08/14 08:25:23;;;;;;;10.70;4.22;;;;;;;19.75;100.00;101394.84;4997240;28;20035;-96
2023/08/14 08:27:49;;;;;;;11.85;4.68;;;;;;;20.08;100.00;101379.69;5021962;28;20015;-95
2023/08/14 08:30:15;;;;;;;10.10;4.70;;;;;;;20.16;100.00;101396.63;5019736;28;20041;-95
2023/08/14 08:32:40;;;;;;;11.18;4.35;;;;;;;20.15;100.00;101387.28;5005852;28;20027;-96
2023/08/14 08:35:06;;;;;;;8.95;4.50;;;;;;;20.15;100.00;101395.81;5008084;28;20032;-94
2023/08/14 08:37:32;;;;;;;8.05;4.45;;;;;;;20.37;100.00;101389.75;5008588;28;20041;-95
2023/08/14 08:39:58;;;;;;;5.95;3.90;;;;;;;20.20;100.00;101392.47;5008937;28;20042;-95
2023/08/14 08:42:24;;;;;;;6.90;4.53;;;;;;;20.22;100.00;101394.91;5019506;28;20038;-96
2023/08/14 08:44:52;;;;;;;10.20;4.85;;;;;;;20.31;100.00;101395.13;5018478;28;20526;-96
2023/08/14 08:47:28;;;;;;;9.15;4.28;;;;;;;20.41;100.00;101405.50;5028061;28;20057;-96
2023/08/14 08:49:54;;;;;;;10.38;4.22;;;;;;;20.56;100.00;101410.94;5014016;28;20034;-95
2023/08/14 08:52:21;;;;;;;7.13;4.72;;;;;;;20.38;100.00;101382.81;5007566;28;20057;-96
2023/08/14 08:54:48;;;;;;;8.57;5.00;;;;;;;20.75;100.00;101412.25;5004949;28;20093;-95
2023/08/14 08:57:14;;;;;;;8.38;4.40;;;;;;;20.68;100.00;101394.06;4981905;28;20030;-95
2023/08/14 08:59:42;;;;;;;8.95;5.32;;;;;;;20.82;100.00;101397.88;5000449;28;20251;-95
2023/08/14 09:02:08;;;;;;;8.77;5.03;;;;;;;20.81;100.00;101391.38;5011631;28;20085;-96
2023/08/14 09:04:40;;;;;;;10.70;3.83;;;;;;;21.13;100.00;101429.78;5010868;28;20033;-96
2023/08/14 09:07:08;;;;;;;12.18;4.38;;;;;;;21.07;100.00;101380.28;5012324;28;20502;-96
2023/08/14 09:09:34;;;;;;;9.00;4.43;;;;;;;21.28;100.00;101413.97;5015546;23;20042;-72
2023/08/14 09:11:59;;;;;;;4.78;3.50;;;;;;;21.45;100.00;101405.53;4985510;28;20049;-72
2023/08/14 09:14:24;;;;;;;10.65;4.47;;;;;;;21.56;100.00;101406.06;4986644;28;20493;-73
2023/08/14 09:16:53;;;;;;;7.00;3.75;;;;;;;21.71;100.00;101398.81;4986507;28;20281;-73
2023/08/14 09:19:19;;;;;;;10.93;3.75;;;;;;;21.70;100.00;101402.91;4981795;28;20026;-72
2023/08/14 09:21:45;;;;;;;8.32;3.83;;;;;;;21.67;100.00;101400.97;4989371;28;20359;-72
2023/08/14 09:24:12;;;;;;;9.98;4.63;;;;;;;21.56;100.00;101410.97;4986436;28;20027;-72
2023/08/14 09:26:37;;;;;;;11.48;4.20;;;;;;;21.77;100.00;101398.28;4988913;28;20025;-73
2023/08/14 09:29:03;;;;;;;10.48;4.03;;;;;;;21.96;100.00;101400.25;4989042;28;20026;-73
2023/08/14 09:31:31;;;;;;;8.70;3.75;;;;;;;21.98;100.00;101386.34;4989092;28;20026;-72
2023/08/14 09:33:57;;;;;;;7.93;3.45;;;;;;;21.98;100.00;101386.34;4982232;28;20018;-73
2023/08/14 09:36:22;;;;;;;5.38;3.08;;;;;;;22.03;100.00;101385.84;4991113;28;20075;-72
2023/08/14 09:38:51;;;;;;;8.45;3.10;;;;;;;22.12;100.00;101397.41;4993985;28;20061;-72
2023/08/14 09:41:19;;;;;;;4.63;2.33;;;;;;;22.46;100.00;101392.50;4995167;28;20080;-72
2023/08/14 09:43:45;;;;;;;4.80;2.78;;;;;;;22.46;97.82;101393.31;4994967;28;20022;-72
2023/08/14 09:46:12;;;;;;;7.75;2.58;;;;;;;21.96;98.80;101377.44;4994183;28;20026;-72
2023/08/14 09:48:48;;;;;;;9.73;2.83;;;;;;;22.16;100.00;101379.41;5009875;28;20026;-73
2023/08/14 09:51:15;;;;;;;8.45;3.42;;;;;;;22.36;97.55;101377.28;4993602;28;20624;-72
2023/08/14 09:53:57;;;;;;;7.90;2.47;;;;;;;22.45;91.63;101380.31;4999227;28;20111;-72
2023/08/14 09:56:23;;;;;;;4.05;2.35;;;;;;;22.44;94.22;101370.13;4998320;28;20576;-72
2023/08/14 09:58:50;;;;;;;8.95;2.63;;;;;;;22.07;95.58;101363.75;4987478;28;20406;-72
2023/08/14 10:01:17;;;;;;;8.43;2.65;;;;;;;22.22;100.00;101369.88;4991856;28;20029;-72
2023/08/14 10:03:46;;;;;;;7.05;2.33;;;;;;;22.33;96.13;101366.78;4995262;28;20037;-72
2023/08/14 10:06:13;;;;;;;4.95;2.08;;;;;;;22.63;95.54;101356.19;4994761;28;20488;-72
2023/08/14 10:08:42;;;;;;;2.83;2.58;;;;;;;22.86;95.76;101353.06;4990828;28;20046;-72
2023/08/14 10:11:12;;;;;;;6.82;2.85;;;;;;;22.73;100.00;101358.72;4995260;28;20373;-72
2023/08/14 10:13:43;;;;;;;4.30;2.38;;;;;;;22.84;96.35;101364.13;4995125;28;20058;-72
2023/08/14 10:16:20;;;;;;;5.37;2.50;;;;;;;22.60;93.84;101362.78;4987483;28;20058;-72
2023/08/14 10:18:47;;;;;;;3.28;2.13;;;;;;;22.05;100.00;101360.53;4989938;28;20077;-72
2023/08/14 10:21:15;;;;;;;5.07;2.30;;;;;;;21.90;100.00;101362.13;4988287;28;20474;-73
2023/08/14 10:23:41;;;;;;;6.70;2.50;;;;;;;22.05;97.11;101354.84;4989767;28;20034;-72
2023/08/14 10:26:07;;;;;;;5.35;2.70;;;;;;;21.95;98.99;101358.75;4992898;28;20033;-72
2023/08/14 10:28:33;;;;;;;3.58;2.28;;;;;;;22.28;97.11;101353.03;4994126;28;20030;-72
2023/08/14 10:30:59;;;;;;;8.60;2.65;;;;;;;22.42;95.98;101349.81;4994405;28;20026;-72
2023/08/14 10:33:25;;;;;;;5.65;2.90;;;;;;;22.30;97.19;101361.94;4992369;28;20509;-72
2023/08/14 10:35:57;;;;;;;7.72;2.83;;;;;;;22.44;95.63;101353.00;4989194;28;20054;-72
2023/08/14 10:38:42;;;;;;;7.33;3.90;;;;;;;22.96;92.23;101362.56;4991340;28;20054;-72
2023/08/14 10:41:09;;;;;;;8.18;3.30;;;;;;;23.46;91.74;101365.97;4989309;28;20484;-72
2023/08/14 10:43:34;;;;;;;5.50;3.50;;;;;;;23.79;89.34;101365.78;4991959;28;20471;-72
2023/08/14 10:46:10;;;;;;;7.07;3.75;;;;;;;23.84;89.26;101362.34;4992311;28;20037;-72
2023/08/14 10:48:37;;;;;;;4.72;3.38;;;;;;;23.40;91.14;101357.19;4990931;28;20022;-72
2023/08/14 10:51:02;;;;;;;6.68;3.47;;;;;;;23.61;87.04;101355.72;4990441;28;20110;-72
2023/08/14 10:53:31;;;;;;;6.55;3.30;;;;;;;23.65;89.32;101359.22;4988826;28;20130;-72
2023/08/14 10:55:58;;;;;;;9.88;4.03;;;;;;;24.15;86.29;101357.59;4989661;28;20050;-72
2023/08/14 10:58:35;;;;;;;7.85;3.38;;;;;;;24.57;84.94;101362.28;4991352;28;20034;-72
2023/08/14 11:01:11;;;;;;;7.50;3.50;;;;;;;24.31;84.66;101353.00;4989498;28;20068;-72
2023/08/14 11:03:56;;;;;;;10.63;4.43;;;;;;;24.38;84.85;101346.22;4984641;28;20026;-72
2023/08/14 11:06:27;;;;;;;6.25;3.75;;;;;;;24.53;84.26;101345.25;4988690;28;20052;-72
2023/08/14 11:09:03;;;;;;;8.38;4.65;;;;;;;24.38;85.65;101335.56;4986981;28;20572;-72
2023/08/14 11:11:29;;;;;;;10.35;4.47;;;;;;;24.13;83.24;101333.56;4979593;28;20054;-72
2023/08/14 11:13:55;;;;;;;7.40;4.40;;;;;;;24.40;87.26;101335.91;4980412;28;20074;-71
2023/08/14 11:16:21;;;;;;;6.35;4.00;;;;;;;24.64;81.37;101332.59;4991147;28;20034;-72